Mount Pleasant, MI

8:20 PM EST on February 10, 2016 (GMT -0500)
Mount Pleasant Municipal

Weather History for KMOP - December, 2012

Change the Weather History Date:

Thursday, December 13, 2012

  Actual Average (KAMN) Record (KAMN)
Temperature  
Mean Temperature 36 °F -  
Max Temperature 45 °F 35 °F 58 °F (2015)
Min Temperature 27 °F 21 °F -5 °F (1958)
Degree Days  
Heating Degree Days 29    
Moisture  
Dew Point 24 °F    
Average Humidity 65    
Maximum Humidity 84    
Minimum Humidity 37    
Precipitation  
Precipitation 0.00 in - - ()
Sea Level Pressure  
Sea Level Pressure 30.19 in    
Wind  
Wind Speed 6 mph (South)    
Max Wind Speed 15 mph    
Max Gust Speed 23 mph    
Visibility 10 miles    
Events      
Averages and records for this station are not official NWS values.
T = Trace of Precipitation, MM = Missing Value Source: NWS Daily Summary

Daily Weather History Graph

Daily Weather History Graph

Search for Another Location

Airport or City:

Trip Planner

Search our weather history database for the weather conditions in past years. The results will help you decide how hot, cold, wet, or windy it might be!

Date:

Astronomy

Dec. 13, 2012 Rise Set
Actual Time 8:04 AM EST 5:02 PM EST
Civil Twilight 7:31 AM EST 5:35 PM EST
Nautical Twilight 6:55 AM EST 6:11 PM EST
Astronomical Twilight 6:20 AM EST 6:46 PM EST
Moon 8:11 AM EST (12/13) 5:44 PM EST (12/13)
Length of Visible Light 10h 03m
Length of Day
8h 58m
New Moon, 0% of the Moon is Illuminated
Dec 13
New Moon
Dec 20
First Quarter
Dec 28
Full
Jan 4
Last Quarter
Jan 11
New

Hourly Weather History & Observations

Time (EST) Temp. Windchill Dew Point Humidity Pressure Visibility Wind Dir Wind Speed Gust Speed Precip Events Conditions
12:15 AM 32.4 °F 27.9 °F 24.4 °F 73% 30.27 in 10.0 mi South 4.6 mph - N/A   Clear
12:35 AM 32.2 °F 27.7 °F 24.6 °F 74% 30.27 in 10.0 mi South 4.6 mph - N/A   Clear
12:55 AM 32.0 °F 26.4 °F 24.6 °F 74% 30.26 in 10.0 mi South 5.8 mph - N/A   Clear
1:15 AM 32.0 °F 26.4 °F 24.6 °F 74% 30.26 in 10.0 mi South 5.8 mph - N/A   Clear
1:35 AM 32.0 °F 26.4 °F 24.8 °F 75% 30.27 in 10.0 mi South 5.8 mph - N/A   Clear
1:55 AM 32.5 °F 26.2 °F 25.2 °F 74% 30.26 in 10.0 mi South 6.9 mph - N/A   Clear
2:15 AM 32.4 °F 27.9 °F 25.0 °F 74% 30.26 in 10.0 mi South 4.6 mph - N/A   Clear
2:35 AM 32.0 °F 28.7 °F 25.0 °F 75% 30.27 in 10.0 mi South 3.5 mph - N/A   Clear
2:55 AM 32.2 °F 27.7 °F 25.2 °F 75% 30.27 in 10.0 mi South 4.6 mph - N/A   Clear
3:15 AM 32.0 °F 27.5 °F 25.2 °F 76% 30.26 in 10.0 mi SSE 4.6 mph - N/A   Clear
3:35 AM 31.8 °F 27.3 °F 25.0 °F 76% 30.27 in 10.0 mi South 4.6 mph - N/A   Clear
3:55 AM 32.0 °F 28.7 °F 24.8 °F 75% 30.27 in 10.0 mi South 3.5 mph - N/A   Clear
4:15 AM 31.5 °F - 24.4 °F 75% 30.27 in 10.0 mi Calm Calm - N/A   Clear
4:35 AM 30.9 °F - 24.3 °F 76% 30.27 in 10.0 mi Calm Calm - N/A   Clear
4:55 AM 29.1 °F - 24.1 °F 81% 30.27 in 10.0 mi Calm Calm - N/A   Clear
5:15 AM 28.2 °F 23.1 °F 23.9 °F 84% 30.26 in 10.0 mi SSE 4.6 mph - N/A   Clear
5:35 AM 28.4 °F 23.3 °F 23.7 °F 83% 30.26 in 10.0 mi SSE 4.6 mph - N/A   Clear
5:55 AM 28.6 °F 23.5 °F 23.4 °F 81% 30.26 in 10.0 mi SSE 4.6 mph - N/A   Clear
6:15 AM 28.4 °F 24.6 °F 23.0 °F 80% 30.26 in 10.0 mi SSE 3.5 mph - N/A   Clear
6:35 AM 28.4 °F - 23.2 °F 81% 30.26 in 10.0 mi Calm Calm - N/A   Clear
6:54 AM 27.9 °F 24.0 °F 23.0 °F 82% 30.25 in 10.0 mi SSE 3.5 mph - N/A   Clear
7:15 AM 27.5 °F 23.6 °F 23.0 °F 83% 30.25 in 10.0 mi SSE 3.5 mph - N/A   Clear
7:35 AM 27.9 °F 21.5 °F 23.2 °F 83% 30.25 in 10.0 mi South 5.8 mph - N/A   Clear
7:54 AM 29.3 °F 25.6 °F 23.5 °F 79% 30.25 in 10.0 mi South 3.5 mph - N/A   Clear
8:15 AM 30.2 °F 23.4 °F 23.5 °F 76% 30.25 in 10.0 mi South 6.9 mph - N/A   Clear
8:34 AM 30.7 °F 26.0 °F 23.5 °F 75% 30.24 in 10.0 mi South 4.6 mph - N/A   Clear
8:55 AM 31.8 °F 25.4 °F 23.9 °F 73% 30.24 in 10.0 mi SSW 6.9 mph - N/A   Clear
9:15 AM 32.0 °F 25.6 °F 23.9 °F 72% 30.23 in 10.0 mi SSW 6.9 mph - N/A   Clear
9:35 AM 32.9 °F 25.3 °F 24.3 °F 71% 30.23 in 10.0 mi SSW 9.2 mph - N/A   Clear
9:55 AM 33.6 °F 26.8 °F 24.6 °F 70% 30.23 in 10.0 mi SSW 8.1 mph - N/A   Clear
10:15 AM 34.5 °F 27.9 °F 24.8 °F 68% 30.23 in 10.0 mi South 8.1 mph - N/A   Clear
10:35 AM 35.6 °F 28.0 °F 24.8 °F 65% 30.23 in 10.0 mi South 10.4 mph - N/A   Clear
10:55 AM 36.5 °F 29.2 °F 25.3 °F 64% 30.22 in 10.0 mi South 10.4 mph 18.4 mph N/A   Clear
11:15 AM 37.4 °F 29.3 °F 25.5 °F 62% 30.22 in 10.0 mi SSW 12.7 mph 19.6 mph N/A   Clear
11:35 AM 38.1 °F 32.3 °F 25.3 °F 60% 30.21 in 10.0 mi South 8.1 mph - N/A   Clear
11:55 AM 39.2 °F 32.0 °F 25.2 °F 57% 30.20 in 10.0 mi South 11.5 mph - N/A   Clear
12:15 PM 39.7 °F 33.2 °F 25.2 °F 56% 30.19 in 10.0 mi South 10.4 mph - N/A   Clear
12:35 PM 40.3 °F 33.9 °F 24.8 °F 54% 30.18 in 10.0 mi South 10.4 mph 17.3 mph N/A   Clear
12:55 PM 40.8 °F 35.6 °F 25.3 °F 54% 30.17 in 10.0 mi South 8.1 mph - N/A   Clear
1:15 PM 41.9 °F 36.9 °F 25.3 °F 52% 30.17 in 10.0 mi South 8.1 mph - N/A   Clear
1:35 PM 42.4 °F 37.0 °F 24.8 °F 50% 30.16 in 10.0 mi South 9.2 mph - N/A   Clear
1:55 PM 43.3 °F 37.7 °F 23.7 °F 46% 30.15 in 10.0 mi South 10.4 mph - N/A   Clear
2:15 PM 43.7 °F 37.7 °F 21.9 °F 42% 30.14 in 10.0 mi SSW 11.5 mph 19.6 mph N/A   Clear
2:35 PM 44.1 °F 37.1 °F 20.8 °F 40% 30.12 in 10.0 mi SSW 15.0 mph 19.6 mph N/A   Clear
2:55 PM 45.0 °F 38.9 °F 20.7 °F 38% 30.11 in 10.0 mi SSW 12.7 mph 18.4 mph N/A   Clear
3:15 PM 44.8 °F 38.0 °F 19.9 °F 37% 30.11 in 10.0 mi SSW 15.0 mph 23.0 mph N/A   Clear
3:35 PM 44.4 °F 38.6 °F 20.8 °F 39% 30.11 in 10.0 mi SSW 11.5 mph - N/A   Clear
3:55 PM 45.1 °F 40.3 °F 21.7 °F 40% 30.11 in 10.0 mi South 9.2 mph - N/A   Clear
4:15 PM 44.8 °F 41.0 °F 22.6 °F 42% 30.10 in 10.0 mi SSW 6.9 mph - N/A   Clear
4:35 PM 44.2 °F 39.7 °F 23.0 °F 43% 30.10 in 10.0 mi South 8.1 mph - N/A   Clear
4:55 PM 43.3 °F 39.9 °F 23.4 °F 45% 30.10 in 10.0 mi SSE 5.8 mph - N/A   Clear
5:35 PM 40.3 °F 34.9 °F 25.7 °F 56% 30.08 in 10.0 mi South 8.1 mph - N/A   Clear
7:55 PM 38.1 °F 33.7 °F 25.2 °F 60% 30.09 in 10.0 mi SSW 5.8 mph - N/A   Clear
8:15 PM 37.8 °F 34.2 °F 25.0 °F 60% 30.09 in 10.0 mi SSW 4.6 mph - N/A   Clear
8:35 PM 37.2 °F 34.7 °F 25.0 °F 61% 30.09 in 10.0 mi South 3.5 mph - N/A   Clear
9:15 PM 36.5 °F 31.8 °F 25.2 °F 64% 30.08 in 10.0 mi SSW 5.8 mph - N/A   Clear
9:35 PM 36.9 °F 30.7 °F 25.2 °F 63% 30.08 in 10.0 mi SSW 8.1 mph - N/A   Clear
9:55 PM 36.7 °F 30.5 °F 25.2 °F 63% 30.08 in 10.0 mi SSW 8.1 mph - N/A   Clear
10:15 PM 36.5 °F 30.3 °F 25.2 °F 64% 30.09 in 10.0 mi SW 8.1 mph - N/A   Clear
10:35 PM 36.5 °F 31.0 °F 25.2 °F 64% 30.09 in 10.0 mi SW 6.9 mph - N/A   Clear
10:55 PM 36.1 °F 30.6 °F 25.3 °F 65% 30.09 in 10.0 mi SSW 6.9 mph - N/A   Clear
11:15 PM 35.6 °F 29.2 °F 25.3 °F 66% 30.09 in 10.0 mi SSW 8.1 mph - N/A   Clear
11:35 PM 35.6 °F 29.9 °F 25.5 °F 67% 30.09 in 10.0 mi SSW 6.9 mph - N/A   Clear
11:55 PM 35.1 °F 29.3 °F 25.7 °F 69% 30.09 in 10.0 mi SSW 6.9 mph - N/A   Clear